Steele, Missouri
Current Conditions -  °F | °C
As of 8:53 PM on Friday 31 Oct 2014 (Local Time) from KHKA Reporting Station
Clear Clear  
Wind Chill: -1°   Ceiling: Unl
Heat Index:   Visibility: 10mi
Dew Point: -2°   Wind: 9mph
Humidity: 70%   Direction: 360°N
Pressure: 30.33"   Gusts: NA
Location:  36.08°N, 89.83°W
Report Text: KHKA 010153Z AUTO 36008KT 10SM CLR 03/M02 A3033 RMK AO2 SLP270 T00281022
Loading
Personal Weather Stations






























Interactive Weather Map
Tropical Storm Tracking
New forecast layout! Learn more

10-Day Weather Forecast

Advertisements
Track Severe Weather on mobile